Aérodrome :
LOGIN :

S'inscrire | Disclaimer

   EN    FR    IT 

 










Légende :    VFR   VFR Marginal   IFR   IFR Intensif   IFR Très Intensif
Visi : 
Plafond : 
>= 8 km
>= 3000ft
5 à 8 km
1000 à 3000 ft
1500m à 5 km
500 à 1000 ft
800 à 1500m
200 à 500 ft
< 800m
< 200 ft
Symboles :   Orages  Brouillard  Fortes neiges  Fortes précipitations  Vent > 20 kt
SIGMETs :   Divers  Orages  Givrage  Turbulence  Onde Orograph.  Cendres Volcan.






- Altitude de l'aérodrome : 302 ft
- Code IATA : CGN


EDDK - Cologne Bonn

DERNIER METAR :
  • 210020Z AUTO 26005KT 220V280 CAVOK 11/09 Q1021 NOSIG

METARs EXPIRÉS :
  • 202350Z AUTO 27008KT 250V320 CAVOK 12/09 Q1021 NOSIG
  • 202320Z AUTO 27007KT 9999 FEW019 12/09 Q1021 NOSIG
  • 202250Z AUTO 29012KT 9999 FEW021 13/09 Q1021 BECMG 25007KT
  • 202220Z AUTO 29015KT 9999 SCT021 BKN034 14/10 Q1021 BECMG 26010KT
  • 202150Z AUTO 28015KT 9999 FEW023 BKN035 14/10 Q1020 BECMG 26010KT

TAF TAF EDDK
Valide du 21 à 00h jusqu'au 22 à 06h UTC


202300Z 2100/2206 25007KT 9999 SCT025
BECMG 2105/2108 29012KT
BECMG 2114/2117 30007KT
BECMG 2117/2120 VRB03KT



MET'MAP, la Météo Aéronautique d'un coup d'oeil ! - Copyright ORBIFLY Décembre 2007 - Disclaimer

ORBIFLY MET'MAP TEAM :

Programmation & Développement : Alexandra Zaïnal
Sur une idée originale de : Baudouin d'Aumeries
Soutien technique & logistique : Manuel Goepfert
Assistance : Marc-Olivier Méhu

Contact : metmap@orbifly.com




SOURCES & CREDITS :

   NOAA